sensor_id;sensor_type;location;lat;lon;timestamp;temperature;humidity
59857;DHT22;45733;52.668;6.860;2022-08-01T00:01:42;18.90;99.90
59857;DHT22;45733;52.668;6.860;2022-08-01T00:04:07;18.90;99.90
59857;DHT22;45733;52.668;6.860;2022-08-01T00:06:33;18.90;99.90
59857;DHT22;45733;52.668;6.860;2022-08-01T00:08:59;18.80;99.90
59857;DHT22;45733;52.668;6.860;2022-08-01T00:11:26;18.80;99.90
59857;DHT22;45733;52.668;6.860;2022-08-01T00:13:52;18.80;99.90
59857;DHT22;45733;52.668;6.860;2022-08-01T00:16:18;18.70;99.90
59857;DHT22;45733;52.668;6.860;2022-08-01T00:18:44;18.80;99.90
59857;DHT22;45733;52.668;6.860;2022-08-01T00:21:10;18.70;99.90
59857;DHT22;45733;52.668;6.860;2022-08-01T00:23:36;18.90;99.90
59857;DHT22;45733;52.668;6.860;2022-08-01T00:26:02;18.90;99.90
59857;DHT22;45733;52.668;6.860;2022-08-01T00:28:28;18.80;99.90
59857;DHT22;45733;52.668;6.860;2022-08-01T00:30:53;18.90;99.90
59857;DHT22;45733;52.668;6.860;2022-08-01T00:33:19;18.80;99.90
59857;DHT22;45733;52.668;6.860;2022-08-01T00:35:45;18.80;99.90
59857;DHT22;45733;52.668;6.860;2022-08-01T00:38:11;18.80;99.90
59857;DHT22;45733;52.668;6.860;2022-08-01T00:40:37;18.70;99.90
59857;DHT22;45733;52.668;6.860;2022-08-01T00:43:03;18.80;99.90
59857;DHT22;45733;52.668;6.860;2022-08-01T00:45:28;18.80;99.90
59857;DHT22;45733;52.668;6.860;2022-08-01T00:47:54;18.80;99.90
59857;DHT22;45733;52.668;6.860;2022-08-01T00:50:21;18.90;99.90
59857;DHT22;45733;52.668;6.860;2022-08-01T00:52:48;18.80;99.90
59857;DHT22;45733;52.668;6.860;2022-08-01T00:55:15;18.90;99.90
59857;DHT22;45733;52.668;6.860;2022-08-01T00:57:42;18.80;99.90
59857;DHT22;45733;52.668;6.860;2022-08-01T01:00:08;18.90;99.90
59857;DHT22;45733;52.668;6.860;2022-08-01T01:02:37;18.70;99.90
59857;DHT22;45733;52.668;6.860;2022-08-01T01:05:03;18.80;99.90
59857;DHT22;45733;52.668;6.860;2022-08-01T01:07:46;18.90;99.90
59857;DHT22;45733;52.668;6.860;2022-08-01T01:10:25;18.90;99.90
59857;DHT22;45733;52.668;6.860;2022-08-01T01:13:31;18.70;99.90
59857;DHT22;45733;52.668;6.860;2022-08-01T01:15:59;18.90;99.90
59857;DHT22;45733;52.668;6.860;2022-08-01T01:18:34;18.70;99.90
59857;DHT22;45733;52.668;6.860;2022-08-01T01:27:10;18.70;99.90
59857;DHT22;45733;52.668;6.860;2022-08-01T01:29:42;18.80;99.90
59857;DHT22;45733;52.668;6.860;2022-08-01T01:34:49;18.70;99.90
59857;DHT22;45733;52.668;6.860;2022-08-01T01:37:18;18.80;99.90
59857;DHT22;45733;52.668;6.860;2022-08-01T01:39:46;18.60;99.90
59857;DHT22;45733;52.668;6.860;2022-08-01T01:42:14;18.80;99.90
59857;DHT22;45733;52.668;6.860;2022-08-01T01:44:43;18.60;99.90
59857;DHT22;45733;52.668;6.860;2022-08-01T01:47:12;18.60;99.90
59857;DHT22;45733;52.668;6.860;2022-08-01T01:49:40;18.60;99.90
59857;DHT22;45733;52.668;6.860;2022-08-01T01:52:07;18.70;99.90
59857;DHT22;45733;52.668;6.860;2022-08-01T01:54:36;18.80;99.90
59857;DHT22;45733;52.668;6.860;2022-08-01T01:57:04;18.80;99.90
59857;DHT22;45733;52.668;6.860;2022-08-01T01:59:32;18.70;99.90
59857;DHT22;45733;52.668;6.860;2022-08-01T02:02:02;18.70;99.90
59857;DHT22;45733;52.668;6.860;2022-08-01T02:04:29;18.60;99.90
59857;DHT22;45733;52.668;6.860;2022-08-01T02:06:56;18.80;99.90
59857;DHT22;45733;52.668;6.860;2022-08-01T02:09:23;18.80;99.90
59857;DHT22;45733;52.668;6.860;2022-08-01T02:11:53;18.70;99.90
59857;DHT22;45733;52.668;6.860;2022-08-01T02:14:22;18.70;99.90
59857;DHT22;45733;52.668;6.860;2022-08-01T02:16:50;18.80;99.90
59857;DHT22;45733;52.668;6.860;2022-08-01T02:19:19;18.70;99.90
59857;DHT22;45733;52.668;6.860;2022-08-01T02:21:56;18.80;99.90
59857;DHT22;45733;52.668;6.860;2022-08-01T02:24:31;18.70;99.90
59857;DHT22;45733;52.668;6.860;2022-08-01T02:27:02;18.80;99.90
59857;DHT22;45733;52.668;6.860;2022-08-01T02:29:38;18.80;99.90
59857;DHT22;45733;52.668;6.860;2022-08-01T02:32:15;18.70;99.90
59857;DHT22;45733;52.668;6.860;2022-08-01T02:34:46;18.60;99.90
59857;DHT22;45733;52.668;6.860;2022-08-01T02:37:15;18.60;99.90
59857;DHT22;45733;52.668;6.860;2022-08-01T02:39:42;18.70;99.90
59857;DHT22;45733;52.668;6.860;2022-08-01T02:42:11;18.60;99.90
59857;DHT22;45733;52.668;6.860;2022-08-01T02:44:41;18.70;99.90
59857;DHT22;45733;52.668;6.860;2022-08-01T02:47:07;18.70;99.90
59857;DHT22;45733;52.668;6.860;2022-08-01T02:49:39;18.70;99.90
59857;DHT22;45733;52.668;6.860;2022-08-01T02:52:13;18.70;99.90
59857;DHT22;45733;52.668;6.860;2022-08-01T02:54:41;18.60;99.90
59857;DHT22;45733;52.668;6.860;2022-08-01T02:57:08;18.50;99.90
59857;DHT22;45733;52.668;6.860;2022-08-01T02:59:37;18.60;99.90
59857;DHT22;45733;52.668;6.860;2022-08-01T03:02:05;18.50;99.90
59857;DHT22;45733;52.668;6.860;2022-08-01T03:04:34;18.50;99.90
59857;DHT22;45733;52.668;6.860;2022-08-01T03:07:04;18.50;99.90
59857;DHT22;45733;52.668;6.860;2022-08-01T03:09:34;18.50;99.90
59857;DHT22;45733;52.668;6.860;2022-08-01T03:12:03;18.50;99.90
59857;DHT22;45733;52.668;6.860;2022-08-01T03:14:31;18.50;99.90
59857;DHT22;45733;52.668;6.860;2022-08-01T03:17:00;18.30;99.90
59857;DHT22;45733;52.668;6.860;2022-08-01T03:19:27;18.30;99.90
59857;DHT22;45733;52.668;6.860;2022-08-01T03:21:55;18.40;99.90
59857;DHT22;45733;52.668;6.860;2022-08-01T03:24:24;18.40;99.90
59857;DHT22;45733;52.668;6.860;2022-08-01T03:26:52;18.30;99.90
59857;DHT22;45733;52.668;6.860;2022-08-01T03:29:23;18.40;99.90
59857;DHT22;45733;52.668;6.860;2022-08-01T03:31:50;18.50;99.90
59857;DHT22;45733;52.668;6.860;2022-08-01T03:34:19;18.40;99.90
59857;DHT22;45733;52.668;6.860;2022-08-01T03:37:07;18.30;99.90
59857;DHT22;45733;52.668;6.860;2022-08-01T03:39:42;18.40;99.90
59857;DHT22;45733;52.668;6.860;2022-08-01T03:42:28;18.50;99.90
59857;DHT22;45733;52.668;6.860;2022-08-01T03:45:04;18.30;99.90
59857;DHT22;45733;52.668;6.860;2022-08-01T03:47:33;18.30;99.90
59857;DHT22;45733;52.668;6.860;2022-08-01T03:50:02;18.30;99.90
59857;DHT22;45733;52.668;6.860;2022-08-01T03:52:32;18.50;99.90
59857;DHT22;45733;52.668;6.860;2022-08-01T03:55:03;18.40;99.90
59857;DHT22;45733;52.668;6.860;2022-08-01T03:57:30;18.20;99.90
59857;DHT22;45733;52.668;6.860;2022-08-01T03:59:57;18.40;99.90
59857;DHT22;45733;52.668;6.860;2022-08-01T04:02:24;18.40;99.90
59857;DHT22;45733;52.668;6.860;2022-08-01T04:04:50;18.30;99.90
59857;DHT22;45733;52.668;6.860;2022-08-01T04:07:25;18.20;99.90
59857;DHT22;45733;52.668;6.860;2022-08-01T04:09:51;18.30;99.90
59857;DHT22;45733;52.668;6.860;2022-08-01T04:12:18;18.20;99.90
59857;DHT22;45733;52.668;6.860;2022-08-01T04:14:44;18.20;99.90
59857;DHT22;45733;52.668;6.860;2022-08-01T04:17:10;18.20;99.90
59857;DHT22;45733;52.668;6.860;2022-08-01T04:19:36;18.20;99.90
59857;DHT22;45733;52.668;6.860;2022-08-01T04:22:02;18.30;99.90
59857;DHT22;45733;52.668;6.860;2022-08-01T04:24:28;18.20;99.90
59857;DHT22;45733;52.668;6.860;2022-08-01T04:26:58;18.20;99.90
59857;DHT22;45733;52.668;6.860;2022-08-01T04:29:26;18.20;99.90
59857;DHT22;45733;52.668;6.860;2022-08-01T04:31:55;18.20;99.90
59857;DHT22;45733;52.668;6.860;2022-08-01T04:34:25;18.20;99.90
59857;DHT22;45733;52.668;6.860;2022-08-01T04:36:54;18.20;99.90
59857;DHT22;45733;52.668;6.860;2022-08-01T04:39:21;18.20;99.90
59857;DHT22;45733;52.668;6.860;2022-08-01T04:41:49;18.10;99.90
59857;DHT22;45733;52.668;6.860;2022-08-01T04:44:16;18.20;99.90
59857;DHT22;45733;52.668;6.860;2022-08-01T04:46:42;18.10;99.90
59857;DHT22;45733;52.668;6.860;2022-08-01T04:49:10;18.10;99.90
59857;DHT22;45733;52.668;6.860;2022-08-01T04:51:49;18.30;99.90
59857;DHT22;45733;52.668;6.860;2022-08-01T04:54:16;18.20;99.90
59857;DHT22;45733;52.668;6.860;2022-08-01T04:56:42;18.10;99.90
59857;DHT22;45733;52.668;6.860;2022-08-01T04:59:08;18.20;99.90
59857;DHT22;45733;52.668;6.860;2022-08-01T05:01:52;18.00;99.90
59857;DHT22;45733;52.668;6.860;2022-08-01T05:04:18;18.10;99.90
59857;DHT22;45733;52.668;6.860;2022-08-01T05:06:44;18.10;99.90
59857;DHT22;45733;52.668;6.860;2022-08-01T05:09:10;18.20;99.90
59857;DHT22;45733;52.668;6.860;2022-08-01T05:11:35;18.20;99.90
59857;DHT22;45733;52.668;6.860;2022-08-01T05:14:01;18.10;99.90
59857;DHT22;45733;52.668;6.860;2022-08-01T05:16:27;18.10;99.90
59857;DHT22;45733;52.668;6.860;2022-08-01T05:18:53;18.40;99.90
59857;DHT22;45733;52.668;6.860;2022-08-01T05:21:18;18.50;99.90
59857;DHT22;45733;52.668;6.860;2022-08-01T05:23:44;18.80;99.90
59857;DHT22;45733;52.668;6.860;2022-08-01T05:26:10;18.50;99.90
59857;DHT22;45733;52.668;6.860;2022-08-01T05:28:36;18.50;99.90
59857;DHT22;45733;52.668;6.860;2022-08-01T05:31:03;18.40;99.90
59857;DHT22;45733;52.668;6.860;2022-08-01T05:33:29;18.40;99.90
59857;DHT22;45733;52.668;6.860;2022-08-01T05:35:55;18.40;99.90
59857;DHT22;45733;52.668;6.860;2022-08-01T05:38:20;18.20;99.90
59857;DHT22;45733;52.668;6.860;2022-08-01T05:40:46;18.40;99.90
59857;DHT22;45733;52.668;6.860;2022-08-01T05:43:12;18.50;99.90
59857;DHT22;45733;52.668;6.860;2022-08-01T05:45:38;18.30;99.90
59857;DHT22;45733;52.668;6.860;2022-08-01T05:48:04;18.50;99.90
59857;DHT22;45733;52.668;6.860;2022-08-01T05:50:29;18.40;99.90
59857;DHT22;45733;52.668;6.860;2022-08-01T05:52:55;18.40;99.90
59857;DHT22;45733;52.668;6.860;2022-08-01T05:55:21;18.40;99.90
59857;DHT22;45733;52.668;6.860;2022-08-01T05:57:47;18.40;99.90
59857;DHT22;45733;52.668;6.860;2022-08-01T06:00:13;18.30;99.90
59857;DHT22;45733;52.668;6.860;2022-08-01T06:02:41;18.30;99.90
59857;DHT22;45733;52.668;6.860;2022-08-01T06:05:08;18.30;99.90
59857;DHT22;45733;52.668;6.860;2022-08-01T06:07:34;18.30;99.90
59857;DHT22;45733;52.668;6.860;2022-08-01T06:10:00;18.20;99.90
59857;DHT22;45733;52.668;6.860;2022-08-01T06:12:25;18.30;99.90
59857;DHT22;45733;52.668;6.860;2022-08-01T06:14:51;18.30;99.90
59857;DHT22;45733;52.668;6.860;2022-08-01T06:17:18;18.30;99.90
59857;DHT22;45733;52.668;6.860;2022-08-01T06:19:44;18.30;99.90
59857;DHT22;45733;52.668;6.860;2022-08-01T06:22:10;18.40;99.90
59857;DHT22;45733;52.668;6.860;2022-08-01T06:24:35;18.40;99.90
59857;DHT22;45733;52.668;6.860;2022-08-01T06:27:02;18.40;99.90
59857;DHT22;45733;52.668;6.860;2022-08-01T06:29:30;18.30;99.90
59857;DHT22;45733;52.668;6.860;2022-08-01T06:31:56;18.30;99.90
59857;DHT22;45733;52.668;6.860;2022-08-01T06:34:22;18.50;99.90
59857;DHT22;45733;52.668;6.860;2022-08-01T06:36:48;18.70;99.90
59857;DHT22;45733;52.668;6.860;2022-08-01T06:39:14;18.80;99.90
59857;DHT22;45733;52.668;6.860;2022-08-01T06:41:40;18.90;99.90
59857;DHT22;45733;52.668;6.860;2022-08-01T06:44:07;19.00;99.90
59857;DHT22;45733;52.668;6.860;2022-08-01T06:46:34;19.30;99.90
59857;DHT22;45733;52.668;6.860;2022-08-01T06:48:59;19.40;99.90
59857;DHT22;45733;52.668;6.860;2022-08-01T06:51:25;19.80;99.90
59857;DHT22;45733;52.668;6.860;2022-08-01T06:53:51;19.60;99.90
59857;DHT22;45733;52.668;6.860;2022-08-01T06:56:19;19.90;99.90
59857;DHT22;45733;52.668;6.860;2022-08-01T06:58:45;19.60;99.90
59857;DHT22;45733;52.668;6.860;2022-08-01T07:01:10;19.80;99.90
59857;DHT22;45733;52.668;6.860;2022-08-01T07:03:36;19.70;99.90
59857;DHT22;45733;52.668;6.860;2022-08-01T07:06:03;19.50;99.90
59857;DHT22;45733;52.668;6.860;2022-08-01T07:08:29;19.30;99.90
59857;DHT22;45733;52.668;6.860;2022-08-01T07:10:55;19.40;99.90
59857;DHT22;45733;52.668;6.860;2022-08-01T07:13:26;19.50;99.90
59857;DHT22;45733;52.668;6.860;2022-08-01T07:15:52;19.70;99.90
59857;DHT22;45733;52.668;6.860;2022-08-01T07:18:18;19.50;99.90
59857;DHT22;45733;52.668;6.860;2022-08-01T07:20:44;19.50;99.90
59857;DHT22;45733;52.668;6.860;2022-08-01T07:23:13;19.30;99.90
59857;DHT22;45733;52.668;6.860;2022-08-01T07:25:39;19.30;99.90
59857;DHT22;45733;52.668;6.860;2022-08-01T07:28:05;19.20;99.90
59857;DHT22;45733;52.668;6.860;2022-08-01T07:30:30;19.40;99.90
59857;DHT22;45733;52.668;6.860;2022-08-01T07:32:57;19.40;99.90
59857;DHT22;45733;52.668;6.860;2022-08-01T07:35:23;19.50;99.90
59857;DHT22;45733;52.668;6.860;2022-08-01T07:37:48;19.70;99.90
59857;DHT22;45733;52.668;6.860;2022-08-01T07:40:14;19.80;99.90
59857;DHT22;45733;52.668;6.860;2022-08-01T07:42:40;19.60;99.90
59857;DHT22;45733;52.668;6.860;2022-08-01T07:45:09;19.70;99.90
59857;DHT22;45733;52.668;6.860;2022-08-01T07:47:35;19.80;99.90
59857;DHT22;45733;52.668;6.860;2022-08-01T07:50:02;19.70;99.90
59857;DHT22;45733;52.668;6.860;2022-08-01T07:52:29;20.10;99.90
59857;DHT22;45733;52.668;6.860;2022-08-01T07:54:56;20.20;99.90
59857;DHT22;45733;52.668;6.860;2022-08-01T07:57:22;20.00;99.90
59857;DHT22;45733;52.668;6.860;2022-08-01T07:59:49;20.20;99.90
59857;DHT22;45733;52.668;6.860;2022-08-01T08:02:15;19.90;99.90
59857;DHT22;45733;52.668;6.860;2022-08-01T08:04:41;20.30;99.90
59857;DHT22;45733;52.668;6.860;2022-08-01T08:07:06;20.40;99.90
59857;DHT22;45733;52.668;6.860;2022-08-01T08:09:32;20.20;99.90
59857;DHT22;45733;52.668;6.860;2022-08-01T08:11:58;20.30;99.90
59857;DHT22;45733;52.668;6.860;2022-08-01T08:14:24;20.40;99.90
59857;DHT22;45733;52.668;6.860;2022-08-01T08:16:51;20.70;99.90
59857;DHT22;45733;52.668;6.860;2022-08-01T08:19:17;20.30;99.90
59857;DHT22;45733;52.668;6.860;2022-08-01T08:21:43;20.60;99.90
59857;DHT22;45733;52.668;6.860;2022-08-01T08:24:09;20.50;99.90
59857;DHT22;45733;52.668;6.860;2022-08-01T08:26:55;20.50;99.90
59857;DHT22;45733;52.668;6.860;2022-08-01T08:29:21;20.60;99.90
59857;DHT22;45733;52.668;6.860;2022-08-01T08:31:48;20.30;99.90
59857;DHT22;45733;52.668;6.860;2022-08-01T08:34:14;20.50;99.90
59857;DHT22;45733;52.668;6.860;2022-08-01T08:36:40;20.20;99.90
59857;DHT22;45733;52.668;6.860;2022-08-01T08:39:06;20.10;99.90
59857;DHT22;45733;52.668;6.860;2022-08-01T08:41:33;20.30;99.90
59857;DHT22;45733;52.668;6.860;2022-08-01T08:44:01;20.30;99.90
59857;DHT22;45733;52.668;6.860;2022-08-01T08:46:27;20.10;99.90
59857;DHT22;45733;52.668;6.860;2022-08-01T08:48:55;20.40;99.90
59857;DHT22;45733;52.668;6.860;2022-08-01T08:51:25;20.50;99.90
59857;DHT22;45733;52.668;6.860;2022-08-01T08:53:51;20.40;99.90
59857;DHT22;45733;52.668;6.860;2022-08-01T08:56:20;20.40;99.90
59857;DHT22;45733;52.668;6.860;2022-08-01T08:58:46;20.40;99.90
59857;DHT22;45733;52.668;6.860;2022-08-01T09:01:13;20.40;99.90
59857;DHT22;45733;52.668;6.860;2022-08-01T09:03:40;20.60;99.90
59857;DHT22;45733;52.668;6.860;2022-08-01T09:06:06;20.40;99.90
59857;DHT22;45733;52.668;6.860;2022-08-01T09:08:33;20.70;99.90
59857;DHT22;45733;52.668;6.860;2022-08-01T09:10:59;20.80;99.90
59857;DHT22;45733;52.668;6.860;2022-08-01T09:13:24;20.70;99.90
59857;DHT22;45733;52.668;6.860;2022-08-01T09:15:52;20.80;99.90
59857;DHT22;45733;52.668;6.860;2022-08-01T09:18:37;21.20;99.90
59857;DHT22;45733;52.668;6.860;2022-08-01T09:23:33;21.50;99.90
59857;DHT22;45733;52.668;6.860;2022-08-01T09:25:59;21.50;99.90
59857;DHT22;45733;52.668;6.860;2022-08-01T09:28:29;21.90;99.90
59857;DHT22;45733;52.668;6.860;2022-08-01T09:30:58;21.60;99.90
59857;DHT22;45733;52.668;6.860;2022-08-01T09:34:04;21.80;99.90
59857;DHT22;45733;52.668;6.860;2022-08-01T09:36:53;22.10;99.90
59857;DHT22;45733;52.668;6.860;2022-08-01T09:39:27;22.20;99.90
59857;DHT22;45733;52.668;6.860;2022-08-01T09:41:59;22.10;99.90
59857;DHT22;45733;52.668;6.860;2022-08-01T09:44:43;22.10;99.90
59857;DHT22;45733;52.668;6.860;2022-08-01T09:47:10;22.10;99.90
59857;DHT22;45733;52.668;6.860;2022-08-01T09:49:37;22.20;99.90
59857;DHT22;45733;52.668;6.860;2022-08-01T09:52:18;21.90;99.90
59857;DHT22;45733;52.668;6.860;2022-08-01T09:54:55;22.00;99.90
59857;DHT22;45733;52.668;6.860;2022-08-01T09:57:22;22.10;99.90
59857;DHT22;45733;52.668;6.860;2022-08-01T09:59:52;21.70;99.90
59857;DHT22;45733;52.668;6.860;2022-08-01T10:02:36;22.10;99.90
59857;DHT22;45733;52.668;6.860;2022-08-01T10:05:07;21.80;99.90
59857;DHT22;45733;52.668;6.860;2022-08-01T10:07:34;22.00;99.90
59857;DHT22;45733;52.668;6.860;2022-08-01T10:10:12;22.00;99.90
59857;DHT22;45733;52.668;6.860;2022-08-01T10:12:40;22.60;99.90
59857;DHT22;45733;52.668;6.860;2022-08-01T10:15:07;22.80;99.90
59857;DHT22;45733;52.668;6.860;2022-08-01T10:17:34;23.00;99.90
59857;DHT22;45733;52.668;6.860;2022-08-01T10:20:02;22.70;99.90
59857;DHT22;45733;52.668;6.860;2022-08-01T10:22:31;22.80;99.90
59857;DHT22;45733;52.668;6.860;2022-08-01T10:25:02;22.50;99.90
59857;DHT22;45733;52.668;6.860;2022-08-01T10:27:29;22.60;99.90
59857;DHT22;45733;52.668;6.860;2022-08-01T10:30:02;22.80;99.90
59857;DHT22;45733;52.668;6.860;2022-08-01T10:32:33;22.70;99.90
59857;DHT22;45733;52.668;6.860;2022-08-01T10:35:02;23.00;99.90
59857;DHT22;45733;52.668;6.860;2022-08-01T10:37:28;22.60;99.90
59857;DHT22;45733;52.668;6.860;2022-08-01T10:39:55;22.40;99.90
59857;DHT22;45733;52.668;6.860;2022-08-01T10:42:22;22.10;99.90
59857;DHT22;45733;52.668;6.860;2022-08-01T10:44:48;21.90;99.90
59857;DHT22;45733;52.668;6.860;2022-08-01T10:47:23;22.40;99.90
59857;DHT22;45733;52.668;6.860;2022-08-01T10:52:21;22.60;99.90
59857;DHT22;45733;52.668;6.860;2022-08-01T10:54:47;22.50;99.90
59857;DHT22;45733;52.668;6.860;2022-08-01T10:57:13;22.70;99.90
59857;DHT22;45733;52.668;6.860;2022-08-01T10:59:51;23.30;99.90
59857;DHT22;45733;52.668;6.860;2022-08-01T11:05:04;23.00;99.90
59857;DHT22;45733;52.668;6.860;2022-08-01T11:07:51;22.50;99.90
59857;DHT22;45733;52.668;6.860;2022-08-01T11:16:33;22.70;99.90
59857;DHT22;45733;52.668;6.860;2022-08-01T11:19:00;22.70;99.90
59857;DHT22;45733;52.668;6.860;2022-08-01T11:27:22;23.50;99.90
59857;DHT22;45733;52.668;6.860;2022-08-01T11:32:55;23.40;99.90
59857;DHT22;45733;52.668;6.860;2022-08-01T11:35:22;23.40;99.90
59857;DHT22;45733;52.668;6.860;2022-08-01T11:37:55;23.10;99.90
59857;DHT22;45733;52.668;6.860;2022-08-01T11:40:26;23.20;99.90
59857;DHT22;45733;52.668;6.860;2022-08-01T11:45:54;22.90;99.90
59857;DHT22;45733;52.668;6.860;2022-08-01T11:48:25;22.80;99.90
59857;DHT22;45733;52.668;6.860;2022-08-01T11:50:56;23.00;99.90
59857;DHT22;45733;52.668;6.860;2022-08-01T11:53:22;23.60;99.90
59857;DHT22;45733;52.668;6.860;2022-08-01T11:55:52;23.60;99.90
59857;DHT22;45733;52.668;6.860;2022-08-01T11:58:25;23.60;99.90
59857;DHT22;45733;52.668;6.860;2022-08-01T12:00:56;23.10;99.90
59857;DHT22;45733;52.668;6.860;2022-08-01T12:03:30;22.90;99.90
59857;DHT22;45733;52.668;6.860;2022-08-01T12:05:58;22.70;99.90
59857;DHT22;45733;52.668;6.860;2022-08-01T12:08:31;22.60;99.90
59857;DHT22;45733;52.668;6.860;2022-08-01T12:11:03;22.70;99.90
59857;DHT22;45733;52.668;6.860;2022-08-01T12:13:42;22.80;99.90
59857;DHT22;45733;52.668;6.860;2022-08-01T12:16:10;23.10;99.90
59857;DHT22;45733;52.668;6.860;2022-08-01T12:18:40;22.90;99.90
59857;DHT22;45733;52.668;6.860;2022-08-01T12:21:06;23.30;99.90
59857;DHT22;45733;52.668;6.860;2022-08-01T12:23:32;23.50;99.90
59857;DHT22;45733;52.668;6.860;2022-08-01T12:25:58;23.90;99.90
59857;DHT22;45733;52.668;6.860;2022-08-01T12:28:25;23.90;99.90
59857;DHT22;45733;52.668;6.860;2022-08-01T12:30:51;23.80;99.90
59857;DHT22;45733;52.668;6.860;2022-08-01T12:33:18;23.70;99.90
59857;DHT22;45733;52.668;6.860;2022-08-01T12:35:44;24.00;99.90
59857;DHT22;45733;52.668;6.860;2022-08-01T12:38:15;23.60;99.90
59857;DHT22;45733;52.668;6.860;2022-08-01T12:40:44;23.50;99.90
59857;DHT22;45733;52.668;6.860;2022-08-01T12:43:13;23.70;99.90
59857;DHT22;45733;52.668;6.860;2022-08-01T12:45:42;23.40;99.90
59857;DHT22;45733;52.668;6.860;2022-08-01T12:48:14;23.90;99.90
59857;DHT22;45733;52.668;6.860;2022-08-01T12:50:42;24.10;99.90
59857;DHT22;45733;52.668;6.860;2022-08-01T12:53:09;24.10;99.90
59857;DHT22;45733;52.668;6.860;2022-08-01T12:55:48;24.30;99.90
59857;DHT22;45733;52.668;6.860;2022-08-01T12:58:16;24.40;99.90
59857;DHT22;45733;52.668;6.860;2022-08-01T13:00:44;24.30;99.90
59857;DHT22;45733;52.668;6.860;2022-08-01T13:03:16;24.40;99.90
59857;DHT22;45733;52.668;6.860;2022-08-01T13:08:18;24.70;99.90
59857;DHT22;45733;52.668;6.860;2022-08-01T13:10:44;24.80;99.90
59857;DHT22;45733;52.668;6.860;2022-08-01T13:13:11;24.50;99.90
59857;DHT22;45733;52.668;6.860;2022-08-01T13:15:39;24.10;99.90
59857;DHT22;45733;52.668;6.860;2022-08-01T13:18:34;23.60;99.90
59857;DHT22;45733;52.668;6.860;2022-08-01T13:21:17;24.30;99.90
59857;DHT22;45733;52.668;6.860;2022-08-01T13:27:01;23.80;99.90
59857;DHT22;45733;52.668;6.860;2022-08-01T13:29:37;24.20;99.90
59857;DHT22;45733;52.668;6.860;2022-08-01T13:32:17;24.10;99.90
59857;DHT22;45733;52.668;6.860;2022-08-01T13:34:43;24.00;99.90
59857;DHT22;45733;52.668;6.860;2022-08-01T13:37:09;23.90;99.90
59857;DHT22;45733;52.668;6.860;2022-08-01T13:39:34;24.40;99.90
59857;DHT22;45733;52.668;6.860;2022-08-01T13:42:08;24.60;99.90
59857;DHT22;45733;52.668;6.860;2022-08-01T13:44:34;24.40;99.90
59857;DHT22;45733;52.668;6.860;2022-08-01T13:47:02;24.60;99.90
59857;DHT22;45733;52.668;6.860;2022-08-01T13:49:28;24.50;99.90
59857;DHT22;45733;52.668;6.860;2022-08-01T13:51:54;24.50;99.90
59857;DHT22;45733;52.668;6.860;2022-08-01T13:54:20;24.80;99.90
59857;DHT22;45733;52.668;6.860;2022-08-01T13:56:46;24.90;99.90
59857;DHT22;45733;52.668;6.860;2022-08-01T13:59:12;24.80;99.90
59857;DHT22;45733;52.668;6.860;2022-08-01T14:01:38;25.10;99.90
59857;DHT22;45733;52.668;6.860;2022-08-01T14:04:05;24.20;99.90
59857;DHT22;45733;52.668;6.860;2022-08-01T14:06:32;24.20;99.90
59857;DHT22;45733;52.668;6.860;2022-08-01T14:08:58;24.00;99.90
59857;DHT22;45733;52.668;6.860;2022-08-01T14:11:24;23.90;99.90
59857;DHT22;45733;52.668;6.860;2022-08-01T14:13:50;23.90;99.90
59857;DHT22;45733;52.668;6.860;2022-08-01T14:16:16;24.00;99.90
59857;DHT22;45733;52.668;6.860;2022-08-01T14:18:42;23.90;99.90
59857;DHT22;45733;52.668;6.860;2022-08-01T14:21:07;24.00;99.90
59857;DHT22;45733;52.668;6.860;2022-08-01T14:23:33;23.70;99.90
59857;DHT22;45733;52.668;6.860;2022-08-01T14:25:59;24.10;99.90
59857;DHT22;45733;52.668;6.860;2022-08-01T14:28:25;24.30;99.90
59857;DHT22;45733;52.668;6.860;2022-08-01T14:30:53;24.60;99.90
59857;DHT22;45733;52.668;6.860;2022-08-01T14:33:21;24.80;99.90
59857;DHT22;45733;52.668;6.860;2022-08-01T14:35:47;24.40;99.90
59857;DHT22;45733;52.668;6.860;2022-08-01T14:38:13;24.30;99.90
59857;DHT22;45733;52.668;6.860;2022-08-01T14:40:39;24.60;99.90
59857;DHT22;45733;52.668;6.860;2022-08-01T14:43:06;25.00;99.90
59857;DHT22;45733;52.668;6.860;2022-08-01T14:45:32;24.50;99.90
59857;DHT22;45733;52.668;6.860;2022-08-01T14:47:58;24.30;99.90
59857;DHT22;45733;52.668;6.860;2022-08-01T14:50:24;24.50;99.90
59857;DHT22;45733;52.668;6.860;2022-08-01T14:52:52;24.70;99.90
59857;DHT22;45733;52.668;6.860;2022-08-01T14:55:18;24.30;99.90
59857;DHT22;45733;52.668;6.860;2022-08-01T14:57:47;24.10;99.90
59857;DHT22;45733;52.668;6.860;2022-08-01T15:00:13;23.90;99.90
59857;DHT22;45733;52.668;6.860;2022-08-01T15:02:39;23.10;99.90
59857;DHT22;45733;52.668;6.860;2022-08-01T15:05:05;23.20;99.90
59857;DHT22;45733;52.668;6.860;2022-08-01T15:07:32;23.20;99.90
59857;DHT22;45733;52.668;6.860;2022-08-01T15:09:58;23.20;99.90
59857;DHT22;45733;52.668;6.860;2022-08-01T15:12:24;23.10;99.90
59857;DHT22;45733;52.668;6.860;2022-08-01T15:14:49;22.60;99.90
59857;DHT22;45733;52.668;6.860;2022-08-01T15:17:23;22.70;99.90
59857;DHT22;45733;52.668;6.860;2022-08-01T15:19:52;22.90;99.90
59857;DHT22;45733;52.668;6.860;2022-08-01T15:22:19;22.90;99.90
59857;DHT22;45733;52.668;6.860;2022-08-01T15:24:46;22.80;99.90
59857;DHT22;45733;52.668;6.860;2022-08-01T15:27:12;23.00;99.90
59857;DHT22;45733;52.668;6.860;2022-08-01T15:29:38;23.40;99.90
59857;DHT22;45733;52.668;6.860;2022-08-01T15:32:05;23.50;99.90
59857;DHT22;45733;52.668;6.860;2022-08-01T15:34:32;23.80;99.90
59857;DHT22;45733;52.668;6.860;2022-08-01T15:36:58;23.60;99.90
59857;DHT22;45733;52.668;6.860;2022-08-01T15:39:24;23.80;99.90
59857;DHT22;45733;52.668;6.860;2022-08-01T15:41:50;23.60;99.90
59857;DHT22;45733;52.668;6.860;2022-08-01T15:44:16;23.20;99.90
59857;DHT22;45733;52.668;6.860;2022-08-01T15:46:50;23.20;99.90
59857;DHT22;45733;52.668;6.860;2022-08-01T15:49:16;23.10;99.90
59857;DHT22;45733;52.668;6.860;2022-08-01T15:51:44;23.20;99.90
59857;DHT22;45733;52.668;6.860;2022-08-01T15:54:29;23.00;99.90
59857;DHT22;45733;52.668;6.860;2022-08-01T15:56:55;23.10;99.90
59857;DHT22;45733;52.668;6.860;2022-08-01T15:59:20;23.50;99.90
59857;DHT22;45733;52.668;6.860;2022-08-01T16:01:46;23.70;99.90
59857;DHT22;45733;52.668;6.860;2022-08-01T16:04:14;24.00;99.90
59857;DHT22;45733;52.668;6.860;2022-08-01T16:06:41;24.00;99.90
59857;DHT22;45733;52.668;6.860;2022-08-01T16:09:07;24.10;99.90
59857;DHT22;45733;52.668;6.860;2022-08-01T16:11:33;23.70;99.90
59857;DHT22;45733;52.668;6.860;2022-08-01T16:13:59;23.90;99.90
59857;DHT22;45733;52.668;6.860;2022-08-01T16:16:25;23.50;99.90
59857;DHT22;45733;52.668;6.860;2022-08-01T16:18:51;24.20;99.90